Time;durP1;ratioP1;P1;durP2;ratioP2;P2;SDS_P1;SDS_P2;PMS_P1;PMS_P2;Temp;Humidity;BMP_temperature;BMP_pressure;BME280_temperature;BME280_humidity;BME280_pressure;Samples;Min_cycle;Max_cycle;Signal;HPM_P1;HPM_P2
2021/07/18 00:00:11;;;;;;;11.98;9.15;;;21.30;99.80;21.20;99633.00;;;;344047;28;92090;-90
2021/07/18 00:00:23;;;;;;;11.85;9.38;;;21.30;99.70;21.20;99634.00;;;;343169;28;94580;-89
2021/07/18 00:00:35;;;;;;;12.45;9.00;;;21.30;99.80;21.20;99633.00;;;;344262;28;91922;-91
2021/07/18 00:00:47;;;;;;;12.68;9.05;;;21.30;99.80;21.20;99640.00;;;;343620;28;93132;-90
2021/07/18 00:00:59;;;;;;;12.05;9.32;;;21.30;99.80;21.20;99636.00;;;;345155;28;92142;-91
2021/07/18 00:01:11;;;;;;;13.27;9.77;;;21.30;99.80;21.20;99635.00;;;;343932;28;96847;-90
2021/07/18 00:01:22;;;;;;;13.02;9.10;;;21.30;99.70;21.20;99635.00;;;;344007;28;91213;-90
2021/07/18 00:01:34;;;;;;;12.43;8.85;;;21.30;99.70;21.10;99633.00;;;;344078;28;95389;-90
2021/07/18 00:01:46;;;;;;;11.45;8.68;;;21.30;99.80;21.10;99626.00;;;;345402;28;92001;-89
2021/07/18 00:01:58;;;;;;;12.02;9.35;;;21.30;99.70;21.10;99635.00;;;;344026;28;94403;-90
2021/07/18 00:02:11;;;;;;;11.45;9.02;;;21.20;99.70;21.10;99636.00;;;;344039;28;92029;-89
2021/07/18 00:02:23;;;;;;;11.23;8.73;;;21.20;99.70;21.10;99633.00;;;;345211;28;96266;-89
2021/07/18 00:02:35;;;;;;;11.43;8.73;;;21.20;99.70;21.10;99629.00;;;;346904;27;92341;-90
2021/07/18 00:02:48;;;;;;;10.13;8.98;;;21.20;99.70;21.10;99633.00;;;;345680;28;93742;-90
2021/07/18 00:03:00;;;;;;;10.00;8.80;;;21.30;99.80;21.20;99634.00;;;;342508;28;92105;-90
2021/07/18 00:03:12;;;;;;;9.88;8.75;;;21.30;99.70;21.20;99639.00;;;;342774;28;94367;-90
2021/07/18 00:03:24;;;;;;;9.80;8.80;;;21.20;99.70;21.10;99632.00;;;;343278;28;90584;-90
2021/07/18 00:03:36;;;;;;;11.07;8.77;;;21.30;99.80;21.10;99631.00;;;;341839;28;93880;-90
2021/07/18 00:03:48;;;;;;;11.20;8.23;;;21.20;99.80;21.10;99629.00;;;;345136;28;92169;-91
2021/07/18 00:04:00;;;;;;;9.60;7.80;;;21.20;99.80;21.10;99634.00;;;;342898;28;94531;-90
2021/07/18 00:04:27;;;;;;;10.90;8.80;;;21.20;99.80;21.10;99636.00;;;;344385;28;92233;-90
2021/07/18 00:04:39;;;;;;;11.48;9.00;;;21.20;99.80;21.10;99631.00;;;;345658;28;92609;-91
2021/07/18 00:04:52;;;;;;;10.45;8.77;;;21.20;99.80;21.10;99636.00;;;;346602;28;92166;-89
2021/07/18 00:05:05;;;;;;;10.25;8.65;;;21.20;99.80;21.10;99625.00;;;;344274;28;94811;-89
2021/07/18 00:05:17;;;;;;;10.50;8.98;;;21.20;99.80;21.10;99630.00;;;;345353;28;92035;-89
2021/07/18 00:05:28;;;;;;;10.93;9.32;;;21.20;99.90;21.10;99623.00;;;;345426;28;96961;-89
2021/07/18 00:05:41;;;;;;;10.32;9.18;;;21.20;99.80;21.10;99635.00;;;;343944;28;90458;-89
2021/07/18 00:05:53;;;;;;;10.35;9.02;;;21.20;99.80;21.00;99622.00;;;;342824;28;95640;-91
2021/07/18 00:06:05;;;;;;;11.55;8.98;;;21.20;99.80;21.00;99629.00;;;;342748;28;91920;-90
2021/07/18 00:06:17;;;;;;;11.90;9.18;;;21.20;99.80;21.10;99628.00;;;;346662;28;95758;-90
2021/07/18 00:06:29;;;;;;;12.07;9.98;;;21.20;99.80;21.10;99625.00;;;;344658;28;92209;-89
2021/07/18 00:06:41;;;;;;;12.02;10.18;;;21.20;99.90;21.10;99632.00;;;;342862;28;92159;-90
2021/07/18 00:06:53;;;;;;;10.43;9.32;;;21.20;99.80;21.10;99631.00;;;;346798;28;91828;-90
2021/07/18 00:07:05;;;;;;;9.32;8.38;;;21.20;99.90;21.20;99630.00;;;;345591;28;94301;-91
2021/07/18 00:07:17;;;;;;;9.20;8.18;;;21.20;99.80;21.10;99630.00;;;;344089;28;92086;-91
2021/07/18 00:07:29;;;;;;;11.45;8.18;;;21.20;99.90;21.10;99625.00;;;;343846;28;95950;-91
2021/07/18 00:07:41;;;;;;;12.57;8.95;;;21.20;99.90;21.10;99624.00;;;;345446;28;91285;-91
2021/07/18 00:07:54;;;;;;;11.38;9.20;;;21.20;99.90;21.10;99625.00;;;;345369;28;95888;-90
2021/07/18 00:08:06;;;;;;;12.75;9.95;;;21.20;99.90;21.10;99622.00;;;;346501;28;92134;-90
2021/07/18 00:08:18;;;;;;;11.57;8.98;;;21.20;99.90;21.10;99626.00;;;;345515;28;93679;-90
2021/07/18 00:08:30;;;;;;;11.15;8.75;;;21.20;99.90;21.10;99629.00;;;;343751;28;92162;-90
2021/07/18 00:08:42;;;;;;;11.55;8.45;;;21.20;99.90;21.10;99626.00;;;;344276;28;93164;-90
2021/07/18 00:08:54;;;;;;;11.80;8.85;;;21.20;99.90;21.10;99629.00;;;;345466;28;91188;-90
2021/07/18 00:09:06;;;;;;;11.20;9.18;;;21.20;99.90;21.10;99620.00;;;;345279;28;92187;-91
2021/07/18 00:09:18;;;;;;;12.50;9.43;;;21.20;99.90;21.10;99629.00;;;;345184;28;92015;-91
2021/07/18 00:09:29;;;;;;;12.25;9.02;;;21.20;99.90;21.00;99620.00;;;;345150;28;93907;-90
2021/07/18 00:09:41;;;;;;;11.93;9.02;;;21.20;99.90;21.00;99618.00;;;;343879;28;91329;-90
2021/07/18 00:09:53;;;;;;;10.77;9.32;;;21.20;99.90;21.00;99614.00;;;;346166;28;91545;-90
2021/07/18 00:10:06;;;;;;;10.77;9.40;;;21.20;99.90;21.10;99622.00;;;;345532;28;92571;-89
2021/07/18 00:10:18;;;;;;;12.30;8.85;;;21.20;99.90;21.10;99627.00;;;;344271;28;93592;-90
2021/07/18 00:10:31;;;;;;;13.07;8.98;;;21.20;99.90;21.10;99623.00;;;;343888;28;92023;-90
2021/07/18 00:10:42;;;;;;;11.45;9.02;;;21.20;99.90;21.10;99620.00;;;;341680;28;93739;-89
2021/07/18 00:10:55;;;;;;;11.35;8.85;;;21.20;99.90;21.10;99624.00;;;;342852;28;91449;-90
2021/07/18 00:11:07;;;;;;;11.02;8.88;;;21.20;99.90;21.10;99622.00;;;;342758;28;93701;-89
2021/07/18 00:11:19;;;;;;;12.73;9.35;;;21.20;99.90;21.00;99623.00;;;;341524;28;91984;-89
2021/07/18 00:11:31;;;;;;;12.25;9.25;;;21.20;99.90;21.10;99617.00;;;;344378;28;94514;-90
2021/07/18 00:11:42;;;;;;;11.98;9.18;;;21.20;99.90;21.10;99622.00;;;;345706;28;91155;-90
2021/07/18 00:11:54;;;;;;;10.88;8.95;;;21.20;99.90;21.10;99616.00;;;;345611;28;93273;-90
2021/07/18 00:12:07;;;;;;;12.70;9.27;;;21.20;99.90;21.00;99623.00;;;;342902;28;91096;-90
2021/07/18 00:12:19;;;;;;;12.05;8.68;;;21.20;99.90;21.10;99623.00;;;;342652;28;95001;-90
2021/07/18 00:12:31;;;;;;;12.38;8.45;;;21.20;99.90;21.10;99624.00;;;;344845;27;92281;-90
2021/07/18 00:12:43;;;;;;;11.90;8.75;;;21.20;99.90;21.10;99623.00;;;;344346;28;93927;-90
2021/07/18 00:12:56;;;;;;;12.27;9.45;;;21.20;99.90;21.10;99613.00;;;;346097;28;92208;-91
2021/07/18 00:13:08;;;;;;;11.30;9.40;;;21.20;99.90;21.10;99626.00;;;;343905;28;95749;-90
2021/07/18 00:13:20;;;;;;;11.57;9.07;;;21.20;99.90;21.10;99619.00;;;;342843;28;91178;-91
2021/07/18 00:13:32;;;;;;;12.00;8.95;;;21.20;99.90;21.10;99624.00;;;;342735;28;95912;-90
2021/07/18 00:13:44;;;;;;;11.38;8.50;;;21.20;99.90;21.10;99625.00;;;;342942;28;91191;-90
2021/07/18 00:13:56;;;;;;;11.75;8.65;;;21.20;99.90;21.10;99614.00;;;;344368;28;91129;-90
2021/07/18 00:14:09;;;;;;;11.20;9.10;;;21.20;99.90;21.00;99624.00;;;;345639;28;91063;-90
2021/07/18 00:14:21;;;;;;;11.18;8.93;;;21.20;99.90;21.00;99621.00;;;;341797;28;96534;-90
2021/07/18 00:14:33;;;;;;;11.18;8.90;;;21.20;99.90;21.00;99615.00;;;;344954;28;91960;-89
2021/07/18 00:14:45;;;;;;;11.10;8.85;;;21.20;99.90;21.00;99615.00;;;;344240;28;93752;-90
2021/07/18 00:14:57;;;;;;;10.05;8.73;;;21.20;99.90;21.00;99626.00;;;;344192;28;91373;-90
2021/07/18 00:15:11;;;;;;;9.32;8.32;;;21.20;99.90;21.00;99616.00;;;;344312;28;94047;-90
2021/07/18 00:15:23;;;;;;;10.45;9.15;;;21.20;99.90;21.00;99616.00;;;;345716;28;92517;-90
2021/07/18 00:15:35;;;;;;;9.85;8.82;;;21.20;99.90;20.90;99617.00;;;;343194;28;93397;-90
2021/07/18 00:15:48;;;;;;;9.77;8.40;;;21.20;99.90;21.00;99620.00;;;;343748;28;90435;-89
2021/07/18 00:15:59;;;;;;;9.77;8.75;;;21.10;99.90;21.10;99613.00;;;;342926;28;93910;-89
2021/07/18 00:16:12;;;;;;;10.38;8.90;;;21.10;99.90;21.10;99621.00;;;;344199;28;91898;-90
2021/07/18 00:16:24;;;;;;;9.55;8.55;;;21.20;99.90;21.10;99622.00;;;;344508;28;93488;-90
2021/07/18 00:16:36;;;;;;;9.15;8.18;;;21.20;99.90;21.00;99617.00;;;;342696;28;91082;-90
2021/07/18 00:16:48;;;;;;;10.40;8.50;;;21.20;99.90;21.10;99621.00;;;;341285;28;95787;-90
2021/07/18 00:17:01;;;;;;;12.23;9.07;;;21.20;99.90;21.10;99624.00;;;;344181;28;91216;-90
2021/07/18 00:17:13;;;;;;;11.93;9.13;;;21.20;99.90;21.10;99616.00;;;;340104;28;95429;-90
2021/07/18 00:17:26;;;;;;;10.43;8.95;;;21.20;99.90;21.00;99616.00;;;;342507;28;91170;-91
2021/07/18 00:17:38;;;;;;;10.82;8.95;;;21.20;99.90;21.00;99616.00;;;;345312;28;96032;-90
2021/07/18 00:17:50;;;;;;;11.38;8.80;;;21.20;99.90;21.00;99612.00;;;;344167;28;91527;-90
2021/07/18 00:18:03;;;;;;;10.85;8.73;;;21.20;99.90;21.00;99609.00;;;;344106;28;94156;-91
2021/07/18 00:18:15;;;;;;;10.40;8.68;;;21.10;99.90;21.00;99618.00;;;;344203;28;91863;-90
2021/07/18 00:18:27;;;;;;;11.10;8.77;;;21.20;99.90;21.00;99616.00;;;;343360;28;93566;-91
2021/07/18 00:18:39;;;;;;;12.45;8.95;;;21.20;99.90;21.10;99617.00;;;;344433;28;92117;-91
2021/07/18 00:18:52;;;;;;;11.98;9.23;;;21.20;99.90;21.00;99620.00;;;;345471;28;94521;-91
2021/07/18 00:19:05;;;;;;;11.27;8.73;;;21.20;99.90;21.10;99612.00;;;;344182;28;91122;-90
2021/07/18 00:19:17;;;;;;;10.75;8.40;;;21.20;99.90;21.00;99612.00;;;;348336;27;93493;-89
2021/07/18 00:19:29;;;;;;;10.90;8.50;;;21.20;99.90;21.00;99616.00;;;;343848;28;92102;-91
2021/07/18 00:19:41;;;;;;;11.25;9.20;;;21.20;99.90;21.10;99611.00;;;;344020;28;95083;-90
2021/07/18 00:19:53;;;;;;;10.75;9.18;;;21.20;99.90;21.00;99606.00;;;;342429;28;91326;-90
2021/07/18 00:20:11;;;;;;;10.68;8.52;;;21.20;99.90;21.00;99616.00;;;;344240;28;94119;-91
2021/07/18 00:20:23;;;;;;;8.88;7.97;;;21.20;99.90;21.00;99614.00;;;;344031;28;91970;-90
2021/07/18 00:20:35;;;;;;;9.82;8.77;;;21.20;99.90;21.00;99607.00;;;;344169;28;94477;-90
2021/07/18 00:20:49;;;;;;;10.93;8.98;;;21.20;99.90;21.00;99607.00;;;;344164;28;91789;-90
2021/07/18 00:21:02;;;;;;;10.77;9.07;;;21.20;99.90;21.10;99608.00;;;;344126;28;92587;-90
2021/07/18 00:21:14;;;;;;;10.13;8.93;;;21.20;99.90;21.00;99602.00;;;;345359;28;92054;-90
2021/07/18 00:21:25;;;;;;;10.57;8.60;;;21.20;99.90;21.10;99603.00;;;;342345;28;93360;-91
2021/07/18 00:21:37;;;;;;;10.73;8.57;;;21.20;99.90;21.10;99608.00;;;;346372;28;91947;-90
2021/07/18 00:21:50;;;;;;;10.98;8.68;;;21.20;99.90;21.00;99610.00;;;;345471;28;94181;-89
2021/07/18 00:22:03;;;;;;;10.25;8.75;;;21.20;99.90;21.00;99606.00;;;;344196;28;91232;-90
2021/07/18 00:22:15;;;;;;;10.27;9.02;;;21.20;99.90;21.00;99604.00;;;;345718;28;93787;-90
2021/07/18 00:22:27;;;;;;;9.95;8.77;;;21.20;99.90;21.00;99608.00;;;;343744;28;91380;-90
2021/07/18 00:22:40;;;;;;;10.35;8.95;;;21.10;99.90;21.00;99607.00;;;;345540;28;94187;-90
2021/07/18 00:22:53;;;;;;;11.00;9.48;;;21.10;99.90;21.00;99606.00;;;;345299;28;91209;-89
2021/07/18 00:23:06;;;;;;;11.27;9.50;;;21.20;99.90;21.00;99607.00;;;;342452;28;92476;-90
2021/07/18 00:23:18;;;;;;;10.80;9.40;;;21.10;99.90;21.10;99616.00;;;;345232;28;91150;-90
2021/07/18 00:23:30;;;;;;;10.43;9.10;;;21.10;99.90;21.10;99607.00;;;;344202;28;94973;-91
2021/07/18 00:23:42;;;;;;;9.80;8.65;;;21.10;99.90;21.10;99613.00;;;;345524;28;91093;-91
2021/07/18 00:23:54;;;;;;;9.50;8.30;;;21.10;99.90;21.10;99606.00;;;;346951;27;94171;-89
2021/07/18 00:24:06;;;;;;;10.48;8.45;;;21.10;99.90;21.10;99609.00;;;;346548;28;91356;-91
2021/07/18 00:24:18;;;;;;;11.35;9.05;;;21.10;99.90;21.10;99615.00;;;;343863;28;93305;-90
2021/07/18 00:24:30;;;;;;;10.85;9.05;;;21.10;99.90;21.10;99618.00;;;;345165;28;92067;-90
2021/07/18 00:24:42;;;;;;;9.90;8.88;;;21.20;99.90;21.00;99623.00;;;;346606;28;96772;-90
2021/07/18 00:24:54;;;;;;;9.50;8.45;;;21.20;99.90;21.10;99609.00;;;;344123;28;92028;-90
2021/07/18 00:25:07;;;;;;;9.35;8.35;;;21.20;99.90;21.10;99613.00;;;;344063;28;95495;-90
2021/07/18 00:25:18;;;;;;;8.88;8.00;;;21.20;99.90;21.00;99609.00;;;;345415;28;91990;-90
2021/07/18 00:25:32;;;;;;;8.80;7.93;;;21.20;99.90;21.10;99617.00;;;;345509;28;94228;-90
2021/07/18 00:25:44;;;;;;;9.82;7.93;;;21.20;99.90;21.10;99622.00;;;;344052;28;91925;-89
2021/07/18 00:25:56;;;;;;;10.65;8.45;;;21.20;99.90;21.10;99614.00;;;;342683;28;95270;-90
2021/07/18 00:26:08;;;;;;;9.68;8.05;;;21.20;99.90;21.10;99612.00;;;;344085;28;91280;-89
2021/07/18 00:26:21;;;;;;;8.73;7.75;;;21.20;99.90;21.10;99613.00;;;;345450;28;95329;-90
2021/07/18 00:26:33;;;;;;;8.93;8.02;;;21.20;99.90;21.00;99612.00;;;;342461;28;92097;-89
2021/07/18 00:26:44;;;;;;;9.32;8.40;;;21.20;99.90;21.00;99614.00;;;;345619;28;94498;-89
2021/07/18 00:26:56;;;;;;;11.18;9.02;;;21.20;99.90;21.00;99613.00;;;;343900;28;91977;-90
2021/07/18 00:27:09;;;;;;;11.30;8.85;;;21.20;99.90;21.00;99615.00;;;;345285;28;93081;-89
2021/07/18 00:27:20;;;;;;;11.15;8.50;;;21.20;99.90;21.00;99616.00;;;;345598;28;91903;-89
2021/07/18 00:27:32;;;;;;;11.27;8.35;;;21.20;99.90;21.00;99608.00;;;;346854;28;94823;-89
2021/07/18 00:27:44;;;;;;;13.05;9.18;;;21.20;99.90;21.10;99614.00;;;;346482;28;91211;-89
2021/07/18 00:27:56;;;;;;;13.48;8.73;;;21.10;99.90;21.10;99607.00;;;;344146;28;93513;-89
2021/07/18 00:28:08;;;;;;;12.20;8.65;;;21.20;99.90;21.10;99612.00;;;;345190;28;91470;-90
2021/07/18 00:28:20;;;;;;;10.68;8.05;;;21.10;99.90;21.10;99606.00;;;;346993;28;93497;-89
2021/07/18 00:28:32;;;;;;;10.75;8.35;;;21.20;99.90;21.10;99611.00;;;;344017;28;92117;-90
2021/07/18 00:28:44;;;;;;;9.85;8.00;;;21.20;99.90;21.10;99614.00;;;;345673;28;93313;-90
2021/07/18 00:28:56;;;;;;;10.80;8.35;;;21.20;99.90;21.10;99610.00;;;;343842;28;92037;-90
2021/07/18 00:29:08;;;;;;;11.05;8.55;;;21.20;99.90;21.10;99611.00;;;;344202;28;93233;-89
2021/07/18 00:29:20;;;;;;;11.65;9.27;;;21.20;99.90;21.20;99611.00;;;;342699;28;92404;-89
2021/07/18 00:29:32;;;;;;;11.15;8.98;;;21.20;99.90;21.20;99614.00;;;;345590;28;94440;-89
2021/07/18 00:29:44;;;;;;;10.93;8.65;;;21.20;99.90;21.20;99616.00;;;;343943;28;91871;-89
2021/07/18 00:29:56;;;;;;;11.98;8.57;;;21.20;99.90;21.20;99614.00;;;;344085;28;93509;-90
2021/07/18 00:30:09;;;;;;;14.07;8.73;;;21.20;99.90;21.10;99606.00;;;;341267;28;91536;-90
2021/07/18 00:30:20;;;;;;;12.27;8.35;;;21.20;99.90;21.10;99615.00;;;;344479;28;93836;-90
2021/07/18 00:30:32;;;;;;;11.60;8.63;;;21.20;99.90;21.00;99608.00;;;;345211;28;92082;-90
2021/07/18 00:30:44;;;;;;;9.75;8.75;;;21.20;99.90;21.10;99607.00;;;;345621;28;92322;-90
2021/07/18 00:30:56;;;;;;;9.95;8.68;;;21.20;99.90;21.10;99616.00;;;;344316;28;92181;-91
2021/07/18 00:31:09;;;;;;;10.60;8.98;;;21.20;99.90;21.10;99611.00;;;;343511;28;94200;-91
2021/07/18 00:31:20;;;;;;;9.93;8.63;;;21.20;99.90;21.10;99612.00;;;;342574;28;91920;-90
2021/07/18 00:31:33;;;;;;;11.00;9.02;;;21.20;99.90;21.10;99606.00;;;;346702;27;95855;-90
2021/07/18 00:31:45;;;;;;;11.63;9.07;;;21.20;99.90;21.20;99612.00;;;;344099;28;92078;-90
2021/07/18 00:31:56;;;;;;;11.20;8.98;;;21.20;99.90;21.10;99608.00;;;;346732;28;95632;-90
2021/07/18 00:32:09;;;;;;;10.55;9.02;;;21.20;99.90;21.20;99614.00;;;;345284;28;90392;-90
2021/07/18 00:32:21;;;;;;;9.57;8.48;;;21.20;99.90;21.20;99616.00;;;;345651;28;92076;-90
2021/07/18 00:32:33;;;;;;;9.30;8.13;;;21.20;99.90;21.20;99614.00;;;;342505;28;92169;-91
2021/07/18 00:32:45;;;;;;;10.50;8.30;;;21.20;99.90;21.20;99614.00;;;;344003;28;95793;-90
2021/07/18 00:32:57;;;;;;;10.75;8.80;;;21.20;99.90;21.10;99613.00;;;;343589;28;91155;-90
2021/07/18 00:33:09;;;;;;;11.10;9.18;;;21.20;99.90;21.10;99612.00;;;;344217;28;93418;-90
2021/07/18 00:33:21;;;;;;;9.45;8.45;;;21.20;99.90;21.10;99616.00;;;;343517;28;91318;-91
2021/07/18 00:33:33;;;;;;;10.50;8.43;;;21.20;99.90;21.10;99619.00;;;;342578;28;94491;-90
2021/07/18 00:33:45;;;;;;;10.48;8.43;;;21.20;99.90;21.00;99616.00;;;;341393;28;90999;-89
2021/07/18 00:33:57;;;;;;;11.30;8.90;;;21.20;99.90;21.10;99617.00;;;;342771;28;93315;-90
2021/07/18 00:34:09;;;;;;;10.15;8.73;;;21.20;99.90;21.10;99614.00;;;;345510;28;91124;-90
2021/07/18 00:34:21;;;;;;;9.73;8.27;;;21.20;99.90;21.10;99610.00;;;;345497;28;93535;-90
2021/07/18 00:34:33;;;;;;;8.88;7.78;;;21.20;99.90;21.10;99608.00;;;;348029;27;91903;-90
2021/07/18 00:34:45;;;;;;;9.40;8.05;;;21.20;99.90;21.10;99609.00;;;;346767;28;94208;-89
2021/07/18 00:34:56;;;;;;;11.27;8.98;;;21.20;99.90;21.20;99617.00;;;;345218;28;91150;-90
2021/07/18 00:35:09;;;;;;;10.77;9.07;;;21.20;99.90;21.20;99612.00;;;;344158;28;93456;-90
2021/07/18 00:35:21;;;;;;;10.88;8.63;;;21.20;99.90;21.20;99610.00;;;;343771;28;92078;-90
2021/07/18 00:35:34;;;;;;;11.02;8.48;;;21.20;99.90;21.20;99607.00;;;;342842;28;93755;-89
2021/07/18 00:35:46;;;;;;;12.13;8.48;;;21.20;99.90;21.30;99613.00;;;;344160;28;91740;-91
2021/07/18 00:35:57;;;;;;;10.57;8.02;;;21.20;99.90;21.20;99604.00;;;;348202;27;94235;-90
2021/07/18 00:36:09;;;;;;;11.38;8.32;;;21.30;99.90;21.20;99608.00;;;;344062;28;91374;-90
2021/07/18 00:36:21;;;;;;;11.48;8.52;;;21.30;99.90;21.20;99612.00;;;;346860;28;92956;-90
2021/07/18 00:36:33;;;;;;;10.45;8.10;;;21.30;99.90;21.20;99606.00;;;;345160;28;92154;-91
2021/07/18 00:36:45;;;;;;;10.88;8.30;;;21.30;99.90;21.20;99615.00;;;;345784;28;92932;-90
2021/07/18 00:36:56;;;;;;;11.05;8.98;;;21.30;99.90;21.20;99610.00;;;;343960;28;92067;-90
2021/07/18 00:37:08;;;;;;;11.27;9.00;;;21.30;99.90;21.20;99607.00;;;;344174;28;93518;-90
2021/07/18 00:37:20;;;;;;;11.15;8.50;;;21.30;99.90;21.10;99607.00;;;;345531;28;91015;-90
2021/07/18 00:37:32;;;;;;;10.63;7.85;;;21.30;99.90;21.10;99605.00;;;;342681;28;96624;-89
2021/07/18 00:37:45;;;;;;;10.18;7.97;;;21.30;99.90;21.10;99604.00;;;;342733;28;92056;-90
2021/07/18 00:37:58;;;;;;;9.20;7.82;;;21.30;99.90;21.10;99610.00;;;;342660;28;95547;-90
2021/07/18 00:38:09;;;;;;;10.77;8.02;;;21.20;99.90;21.10;99595.00;;;;343791;28;91267;-90
2021/07/18 00:38:21;;;;;;;10.43;8.45;;;21.30;99.90;21.10;99603.00;;;;344297;28;93658;-90
2021/07/18 00:38:33;;;;;;;9.93;8.57;;;21.20;99.90;21.10;99600.00;;;;343804;28;91504;-90
2021/07/18 00:38:45;;;;;;;10.40;8.77;;;21.30;99.90;21.10;99605.00;;;;344348;28;91571;-90
2021/07/18 00:38:57;;;;;;;11.50;8.55;;;21.30;99.90;21.10;99602.00;;;;345192;28;92127;-90
2021/07/18 00:39:09;;;;;;;11.82;8.32;;;21.30;99.90;21.10;99604.00;;;;345470;28;94795;-90
2021/07/18 00:39:20;;;;;;;11.43;7.85;;;21.20;99.90;21.10;99601.00;;;;342614;28;91880;-90
2021/07/18 00:39:32;;;;;;;11.60;8.25;;;21.30;99.90;21.10;99605.00;;;;344153;28;93183;-90
2021/07/18 00:39:44;;;;;;;11.77;8.98;;;21.30;99.90;21.00;99602.00;;;;345097;28;91226;-89
2021/07/18 00:39:56;;;;;;;11.65;8.90;;;21.20;99.90;21.10;99609.00;;;;344055;28;93402;-89
2021/07/18 00:40:09;;;;;;;11.73;8.95;;;21.20;99.90;21.10;99615.00;;;;346511;28;91710;-89
2021/07/18 00:40:20;;;;;;;10.30;8.23;;;21.20;99.90;21.10;99611.00;;;;345667;28;90809;-89
2021/07/18 00:40:32;;;;;;;10.13;7.82;;;21.20;99.90;21.10;99610.00;;;;345018;28;92127;-89
2021/07/18 00:40:44;;;;;;;11.02;7.85;;;21.20;99.90;21.10;99608.00;;;;345667;28;93476;-90
2021/07/18 00:40:56;;;;;;;10.90;7.90;;;21.20;99.90;21.10;99607.00;;;;345440;28;91862;-90
2021/07/18 00:41:08;;;;;;;9.68;7.93;;;21.20;99.90;21.00;99614.00;;;;344191;28;94579;-90
2021/07/18 00:41:20;;;;;;;9.95;8.45;;;21.20;99.90;21.00;99606.00;;;;344036;28;92135;-90
2021/07/18 00:41:32;;;;;;;10.23;8.25;;;21.20;99.90;21.00;99610.00;;;;344170;28;94710;-90
2021/07/18 00:41:44;;;;;;;10.25;8.45;;;21.20;99.90;21.10;99610.00;;;;346769;28;91975;-89
2021/07/18 00:41:56;;;;;;;9.43;8.32;;;21.20;99.90;21.10;99611.00;;;;343906;28;96151;-90
2021/07/18 00:42:09;;;;;;;10.35;8.70;;;21.20;99.90;21.10;99591.00;;;;342811;28;91193;-90
2021/07/18 00:42:21;;;;;;;10.45;8.52;;;21.20;99.90;21.10;99608.00;;;;343822;28;92322;-89
2021/07/18 00:42:33;;;;;;;10.27;8.15;;;21.20;99.90;21.20;99610.00;;;;343827;28;91215;-88
2021/07/18 00:42:44;;;;;;;10.57;7.95;;;21.20;99.90;21.10;99611.00;;;;344230;28;94644;-90
2021/07/18 00:42:56;;;;;;;10.73;8.25;;;21.20;99.90;21.10;99603.00;;;;346500;28;91964;-90
2021/07/18 00:43:08;;;;;;;11.73;8.57;;;21.20;99.90;21.10;99606.00;;;;346903;28;92700;-90
2021/07/18 00:43:20;;;;;;;10.38;8.07;;;21.20;99.90;21.10;99609.00;;;;344067;28;91975;-89
2021/07/18 00:43:32;;;;;;;10.82;7.95;;;21.20;99.90;21.20;99608.00;;;;344182;28;95112;-90
2021/07/18 00:43:44;;;;;;;10.30;8.07;;;21.20;99.90;21.10;99612.00;;;;341318;28;91995;-89
2021/07/18 00:43:56;;;;;;;10.57;8.00;;;21.20;99.90;21.10;99610.00;;;;343918;28;94167;-90
2021/07/18 00:44:08;;;;;;;10.40;8.10;;;21.30;99.90;21.10;99611.00;;;;344113;28;91491;-90
2021/07/18 00:44:20;;;;;;;10.40;8.07;;;21.30;99.90;21.10;99603.00;;;;345551;28;93461;-89
2021/07/18 00:44:32;;;;;;;10.48;8.30;;;21.20;99.90;21.10;99603.00;;;;345281;28;92000;-90
2021/07/18 00:44:44;;;;;;;9.82;8.10;;;21.30;99.90;21.10;99611.00;;;;342896;28;94397;-91
2021/07/18 00:44:56;;;;;;;8.88;7.97;;;21.20;99.90;21.10;99598.00;;;;342801;28;91855;-90
2021/07/18 00:45:08;;;;;;;9.43;8.23;;;21.20;99.90;21.10;99601.00;;;;343840;28;96383;-90
2021/07/18 00:45:20;;;;;;;11.52;8.77;;;21.20;99.90;21.10;99596.00;;;;345024;28;92027;-90
2021/07/18 00:45:33;;;;;;;11.77;9.07;;;21.20;99.90;21.00;99607.00;;;;345963;28;97061;-89
2021/07/18 00:45:44;;;;;;;10.60;8.48;;;21.20;99.90;21.00;99600.00;;;;345436;28;91998;-90
2021/07/18 00:45:57;;;;;;;11.15;8.80;;;21.20;99.90;21.00;99601.00;;;;345037;28;94339;-90
2021/07/18 00:46:10;;;;;;;10.85;8.63;;;21.20;99.90;21.10;99598.00;;;;343867;28;91379;-90
2021/07/18 00:46:22;;;;;;;10.80;8.40;;;21.20;99.90;21.00;99604.00;;;;345123;28;95415;-88
2021/07/18 00:46:34;;;;;;;10.25;8.52;;;21.20;99.90;21.10;99597.00;;;;345350;28;92092;-89
2021/07/18 00:46:46;;;;;;;10.50;8.52;;;21.20;99.90;21.10;99603.00;;;;343970;28;93053;-91
2021/07/18 00:46:59;;;;;;;9.88;8.52;;;21.20;99.90;21.00;99599.00;;;;342657;28;91981;-90
2021/07/18 00:47:11;;;;;;;10.02;8.50;;;21.20;99.90;21.10;99611.00;;;;342833;28;93400;-89
2021/07/18 00:47:23;;;;;;;9.07;8.18;;;21.20;99.90;21.10;99602.00;;;;345489;28;90922;-90
2021/07/18 00:47:35;;;;;;;9.10;8.00;;;21.20;99.90;21.10;99604.00;;;;342891;28;93931;-89
2021/07/18 00:47:47;;;;;;;10.07;8.18;;;21.20;99.90;21.10;99609.00;;;;344057;28;92028;-90
2021/07/18 00:47:59;;;;;;;11.27;8.93;;;21.20;99.90;21.00;99603.00;;;;342900;28;93222;-90
2021/07/18 00:48:11;;;;;;;11.05;9.35;;;21.20;99.90;21.10;99613.00;;;;342832;28;90410;-89
2021/07/18 00:48:29;;;;;;;10.43;8.75;;;21.20;99.90;21.10;99609.00;;;;345140;28;93519;-88
2021/07/18 00:48:40;;;;;;;14.85;8.43;;;21.20;99.90;21.10;99602.00;;;;345302;28;91144;-90
2021/07/18 00:48:52;;;;;;;15.57;8.45;;;21.20;99.90;21.10;99607.00;;;;343378;28;94158;-90
2021/07/18 00:49:04;;;;;;;12.77;8.60;;;21.20;99.90;21.10;99603.00;;;;345280;28;91955;-90
2021/07/18 00:49:16;;;;;;;10.77;8.38;;;21.20;99.90;21.10;99605.00;;;;346708;28;96592;-90
2021/07/18 00:49:28;;;;;;;9.57;8.30;;;21.20;99.90;21.20;99606.00;;;;345374;28;91983;-89
2021/07/18 00:49:39;;;;;;;9.60;8.55;;;21.20;99.90;21.10;99606.00;;;;345575;28;93990;-89
2021/07/18 00:49:51;;;;;;;9.57;8.43;;;21.20;99.90;21.10;99602.00;;;;342641;28;92107;-90
2021/07/18 00:50:09;;;;;;;9.25;8.25;;;21.20;99.90;21.10;99606.00;;;;341477;28;93844;-89
2021/07/18 00:50:21;;;;;;;10.13;8.13;;;21.30;99.90;21.10;99611.00;;;;341266;28;91240;-90
2021/07/18 00:50:33;;;;;;;16.10;8.45;;;21.20;99.90;21.10;99600.00;;;;345603;28;92737;-90
2021/07/18 00:50:44;;;;;;;15.85;8.32;;;21.20;99.90;21.10;99606.00;;;;344116;28;91023;-90
2021/07/18 00:50:57;;;;;;;14.98;7.97;;;21.20;99.90;21.10;99603.00;;;;348406;27;94596;-91
2021/07/18 00:51:09;;;;;;;9.48;7.85;;;21.20;99.90;21.00;99608.00;;;;345356;28;91978;-90
2021/07/18 00:51:20;;;;;;;10.07;8.18;;;21.20;99.90;21.10;99607.00;;;;344065;28;94094;-90
2021/07/18 00:51:32;;;;;;;9.70;8.10;;;21.20;99.90;21.10;99612.00;;;;345350;28;91971;-90
2021/07/18 00:51:44;;;;;;;9.88;8.30;;;21.20;99.90;21.10;99602.00;;;;346823;28;97744;-89
2021/07/18 00:51:56;;;;;;;10.23;8.57;;;21.20;99.90;21.20;99605.00;;;;345204;28;92079;-89
2021/07/18 00:52:08;;;;;;;9.93;8.52;;;21.20;99.90;21.20;99610.00;;;;345556;28;94455;-87
2021/07/18 00:52:20;;;;;;;9.52;8.52;;;21.20;99.90;21.20;99610.00;;;;345198;28;91187;-90
2021/07/18 00:52:32;;;;;;;9.57;8.45;;;21.30;99.90;21.20;99610.00;;;;345568;28;92720;-89
2021/07/18 00:52:44;;;;;;;10.15;8.88;;;21.20;99.90;21.20;99609.00;;;;342729;28;91157;-90
2021/07/18 00:52:56;;;;;;;10.80;8.85;;;21.20;99.90;21.20;99607.00;;;;344217;28;94446;-90
2021/07/18 00:53:07;;;;;;;12.13;9.25;;;21.30;99.90;21.20;99608.00;;;;346774;28;91903;-90
2021/07/18 00:53:19;;;;;;;11.30;8.55;;;21.20;99.90;21.20;99606.00;;;;344204;28;94606;-90
2021/07/18 00:53:31;;;;;;;10.43;8.35;;;21.30;99.90;21.10;99602.00;;;;345382;28;92040;-90
2021/07/18 00:53:43;;;;;;;9.30;8.27;;;21.20;99.90;21.20;99605.00;;;;344182;28;92945;-89
2021/07/18 00:53:54;;;;;;;9.45;8.25;;;21.30;99.90;21.20;99605.00;;;;344011;28;92015;-89
2021/07/18 00:54:06;;;;;;;9.45;8.00;;;21.20;99.90;21.20;99605.00;;;;341564;28;94131;-89
2021/07/18 00:54:18;;;;;;;9.73;8.13;;;21.30;99.90;21.20;99608.00;;;;343922;28;91147;-88